sensor_id;sensor_type;location;lat;lon;timestamp;temperature;humidity
23540;DHT22;11947;50.810;4.394;2024-02-28T00:02:02;4.20;99.90
23540;DHT22;11947;50.810;4.394;2024-02-28T00:04:28;4.40;99.90
23540;DHT22;11947;50.810;4.394;2024-02-28T00:06:53;4.40;99.90
23540;DHT22;11947;50.810;4.394;2024-02-28T00:09:19;4.30;99.90
23540;DHT22;11947;50.810;4.394;2024-02-28T00:11:45;4.20;99.90
23540;DHT22;11947;50.810;4.394;2024-02-28T00:14:12;4.20;99.90
23540;DHT22;11947;50.810;4.394;2024-02-28T00:16:44;4.30;99.90
23540;DHT22;11947;50.810;4.394;2024-02-28T00:19:11;4.20;99.90
23540;DHT22;11947;50.810;4.394;2024-02-28T00:21:38;4.20;99.90
23540;DHT22;11947;50.810;4.394;2024-02-28T00:24:04;4.10;99.90
23540;DHT22;11947;50.810;4.394;2024-02-28T00:26:30;4.10;99.90
23540;DHT22;11947;50.810;4.394;2024-02-28T00:28:55;3.90;99.90
23540;DHT22;11947;50.810;4.394;2024-02-28T00:31:22;4.00;99.90
23540;DHT22;11947;50.810;4.394;2024-02-28T00:33:48;4.10;99.90
23540;DHT22;11947;50.810;4.394;2024-02-28T00:36:13;4.10;99.90
23540;DHT22;11947;50.810;4.394;2024-02-28T00:38:40;4.00;99.90
23540;DHT22;11947;50.810;4.394;2024-02-28T00:41:06;4.00;99.90
23540;DHT22;11947;50.810;4.394;2024-02-28T00:43:32;4.10;99.90
23540;DHT22;11947;50.810;4.394;2024-02-28T00:45:58;4.10;99.90
23540;DHT22;11947;50.810;4.394;2024-02-28T00:48:24;4.10;99.90
23540;DHT22;11947;50.810;4.394;2024-02-28T00:50:50;4.10;99.90
23540;DHT22;11947;50.810;4.394;2024-02-28T00:53:17;4.00;99.90
23540;DHT22;11947;50.810;4.394;2024-02-28T00:55:43;4.00;99.90
23540;DHT22;11947;50.810;4.394;2024-02-28T00:58:08;3.90;99.90
23540;DHT22;11947;50.810;4.394;2024-02-28T01:00:34;3.90;99.90
23540;DHT22;11947;50.810;4.394;2024-02-28T01:03:00;3.90;99.90
23540;DHT22;11947;50.810;4.394;2024-02-28T01:05:29;3.90;99.90
23540;DHT22;11947;50.810;4.394;2024-02-28T01:07:55;3.90;99.90
23540;DHT22;11947;50.810;4.394;2024-02-28T01:10:21;4.00;99.90
23540;DHT22;11947;50.810;4.394;2024-02-28T01:12:47;4.00;99.90
23540;DHT22;11947;50.810;4.394;2024-02-28T01:15:12;4.00;99.90
23540;DHT22;11947;50.810;4.394;2024-02-28T01:17:38;3.90;99.90
23540;DHT22;11947;50.810;4.394;2024-02-28T01:20:05;3.90;99.90
23540;DHT22;11947;50.810;4.394;2024-02-28T01:22:32;3.90;99.90
23540;DHT22;11947;50.810;4.394;2024-02-28T01:24:58;4.00;99.90
23540;DHT22;11947;50.810;4.394;2024-02-28T01:27:24;3.90;99.90
23540;DHT22;11947;50.810;4.394;2024-02-28T01:29:50;3.70;99.90
23540;DHT22;11947;50.810;4.394;2024-02-28T01:32:19;3.80;99.90
23540;DHT22;11947;50.810;4.394;2024-02-28T01:34:48;3.80;99.90
23540;DHT22;11947;50.810;4.394;2024-02-28T01:37:13;3.80;99.90
23540;DHT22;11947;50.810;4.394;2024-02-28T01:39:40;3.70;99.90
23540;DHT22;11947;50.810;4.394;2024-02-28T01:42:05;3.70;99.90
23540;DHT22;11947;50.810;4.394;2024-02-28T01:44:31;3.60;99.90
23540;DHT22;11947;50.810;4.394;2024-02-28T01:46:59;3.60;99.90
23540;DHT22;11947;50.810;4.394;2024-02-28T01:49:25;3.60;99.90
23540;DHT22;11947;50.810;4.394;2024-02-28T01:51:52;3.70;99.90
23540;DHT22;11947;50.810;4.394;2024-02-28T01:54:20;3.80;99.90
23540;DHT22;11947;50.810;4.394;2024-02-28T01:56:46;3.60;99.90
23540;DHT22;11947;50.810;4.394;2024-02-28T01:59:13;3.70;99.90
23540;DHT22;11947;50.810;4.394;2024-02-28T02:01:39;3.60;99.90
23540;DHT22;11947;50.810;4.394;2024-02-28T02:04:05;3.50;99.90
23540;DHT22;11947;50.810;4.394;2024-02-28T02:06:32;3.50;99.90
23540;DHT22;11947;50.810;4.394;2024-02-28T02:08:58;3.50;99.90
23540;DHT22;11947;50.810;4.394;2024-02-28T02:11:24;3.40;99.90
23540;DHT22;11947;50.810;4.394;2024-02-28T02:13:51;3.30;99.90
23540;DHT22;11947;50.810;4.394;2024-02-28T02:16:18;3.40;99.90
23540;DHT22;11947;50.810;4.394;2024-02-28T02:18:45;3.50;99.90
23540;DHT22;11947;50.810;4.394;2024-02-28T02:21:13;3.50;99.90
23540;DHT22;11947;50.810;4.394;2024-02-28T02:23:41;3.50;99.90
23540;DHT22;11947;50.810;4.394;2024-02-28T02:26:06;3.50;99.90
23540;DHT22;11947;50.810;4.394;2024-02-28T02:28:32;3.50;99.90
23540;DHT22;11947;50.810;4.394;2024-02-28T02:30:58;3.50;99.90
23540;DHT22;11947;50.810;4.394;2024-02-28T02:33:23;3.50;99.90
23540;DHT22;11947;50.810;4.394;2024-02-28T02:35:49;3.40;99.90
23540;DHT22;11947;50.810;4.394;2024-02-28T02:38:28;3.40;99.90
23540;DHT22;11947;50.810;4.394;2024-02-28T02:41:06;3.40;99.90
23540;DHT22;11947;50.810;4.394;2024-02-28T02:43:32;3.50;99.90
23540;DHT22;11947;50.810;4.394;2024-02-28T02:45:58;3.50;99.90
23540;DHT22;11947;50.810;4.394;2024-02-28T02:48:23;3.40;99.90
23540;DHT22;11947;50.810;4.394;2024-02-28T02:50:49;3.30;99.90
23540;DHT22;11947;50.810;4.394;2024-02-28T02:53:15;3.30;99.90
23540;DHT22;11947;50.810;4.394;2024-02-28T02:55:41;3.20;99.90
23540;DHT22;11947;50.810;4.394;2024-02-28T02:58:06;3.30;99.90
23540;DHT22;11947;50.810;4.394;2024-02-28T03:00:32;3.10;99.90
23540;DHT22;11947;50.810;4.394;2024-02-28T03:02:58;3.00;99.90
23540;DHT22;11947;50.810;4.394;2024-02-28T03:05:26;3.00;99.90
23540;DHT22;11947;50.810;4.394;2024-02-28T03:07:52;3.00;99.90
23540;DHT22;11947;50.810;4.394;2024-02-28T03:10:18;3.10;99.90
23540;DHT22;11947;50.810;4.394;2024-02-28T03:12:43;3.10;99.90
23540;DHT22;11947;50.810;4.394;2024-02-28T03:15:09;3.10;99.90
23540;DHT22;11947;50.810;4.394;2024-02-28T03:17:34;3.00;99.90
23540;DHT22;11947;50.810;4.394;2024-02-28T03:20:00;2.90;99.90
23540;DHT22;11947;50.810;4.394;2024-02-28T03:22:26;2.90;99.90
23540;DHT22;11947;50.810;4.394;2024-02-28T03:24:51;3.00;99.90
23540;DHT22;11947;50.810;4.394;2024-02-28T03:27:17;2.90;99.90
23540;DHT22;11947;50.810;4.394;2024-02-28T03:29:42;2.90;99.90
23540;DHT22;11947;50.810;4.394;2024-02-28T03:32:08;2.90;99.90
23540;DHT22;11947;50.810;4.394;2024-02-28T03:34:39;2.80;99.90
23540;DHT22;11947;50.810;4.394;2024-02-28T03:37:08;2.70;99.90
23540;DHT22;11947;50.810;4.394;2024-02-28T03:39:34;2.70;99.90
23540;DHT22;11947;50.810;4.394;2024-02-28T03:42:00;2.60;99.90
23540;DHT22;11947;50.810;4.394;2024-02-28T03:44:25;2.70;99.90
23540;DHT22;11947;50.810;4.394;2024-02-28T03:46:51;2.80;99.90
23540;DHT22;11947;50.810;4.394;2024-02-28T03:49:18;2.70;99.90
23540;DHT22;11947;50.810;4.394;2024-02-28T03:51:44;2.70;99.90
23540;DHT22;11947;50.810;4.394;2024-02-28T03:54:09;2.70;99.90
23540;DHT22;11947;50.810;4.394;2024-02-28T03:56:35;2.70;99.90
23540;DHT22;11947;50.810;4.394;2024-02-28T03:59:00;2.60;99.90
23540;DHT22;11947;50.810;4.394;2024-02-28T04:01:26;2.70;99.90
23540;DHT22;11947;50.810;4.394;2024-02-28T04:03:52;2.70;99.90
23540;DHT22;11947;50.810;4.394;2024-02-28T04:06:18;2.80;99.90
23540;DHT22;11947;50.810;4.394;2024-02-28T04:08:43;2.60;99.90
23540;DHT22;11947;50.810;4.394;2024-02-28T04:11:12;2.40;99.90
23540;DHT22;11947;50.810;4.394;2024-02-28T04:13:37;2.50;99.90
23540;DHT22;11947;50.810;4.394;2024-02-28T04:16:03;2.60;99.90
23540;DHT22;11947;50.810;4.394;2024-02-28T04:18:29;2.50;99.90
23540;DHT22;11947;50.810;4.394;2024-02-28T04:20:56;2.60;99.90
23540;DHT22;11947;50.810;4.394;2024-02-28T04:23:21;2.40;99.90
23540;DHT22;11947;50.810;4.394;2024-02-28T04:25:47;2.30;99.90
23540;DHT22;11947;50.810;4.394;2024-02-28T04:28:13;2.40;99.90
23540;DHT22;11947;50.810;4.394;2024-02-28T04:30:39;2.30;99.90
23540;DHT22;11947;50.810;4.394;2024-02-28T04:33:04;2.30;99.90
23540;DHT22;11947;50.810;4.394;2024-02-28T04:35:30;2.50;99.90
23540;DHT22;11947;50.810;4.394;2024-02-28T04:37:56;2.40;99.90
23540;DHT22;11947;50.810;4.394;2024-02-28T04:40:21;2.40;99.90
23540;DHT22;11947;50.810;4.394;2024-02-28T04:42:47;2.30;99.90
23540;DHT22;11947;50.810;4.394;2024-02-28T04:45:13;2.30;99.90
23540;DHT22;11947;50.810;4.394;2024-02-28T04:47:38;2.50;99.90
23540;DHT22;11947;50.810;4.394;2024-02-28T04:50:04;2.60;99.90
23540;DHT22;11947;50.810;4.394;2024-02-28T04:52:33;2.60;99.90
23540;DHT22;11947;50.810;4.394;2024-02-28T04:54:59;2.60;99.90
23540;DHT22;11947;50.810;4.394;2024-02-28T04:57:25;2.50;99.90
23540;DHT22;11947;50.810;4.394;2024-02-28T04:59:51;2.70;99.90
23540;DHT22;11947;50.810;4.394;2024-02-28T05:02:17;2.70;99.90
23540;DHT22;11947;50.810;4.394;2024-02-28T05:04:43;2.70;99.90
23540;DHT22;11947;50.810;4.394;2024-02-28T05:07:09;2.60;99.90
23540;DHT22;11947;50.810;4.394;2024-02-28T05:09:35;2.50;99.90
23540;DHT22;11947;50.810;4.394;2024-02-28T05:12:01;2.60;99.90
23540;DHT22;11947;50.810;4.394;2024-02-28T05:14:27;2.60;99.90
23540;DHT22;11947;50.810;4.394;2024-02-28T05:16:52;2.70;99.90
23540;DHT22;11947;50.810;4.394;2024-02-28T05:19:18;2.70;99.90
23540;DHT22;11947;50.810;4.394;2024-02-28T05:21:44;2.80;99.90
23540;DHT22;11947;50.810;4.394;2024-02-28T05:24:11;3.00;99.90
23540;DHT22;11947;50.810;4.394;2024-02-28T05:26:37;3.00;99.90
23540;DHT22;11947;50.810;4.394;2024-02-28T05:29:04;3.20;99.90
23540;DHT22;11947;50.810;4.394;2024-02-28T05:31:30;3.40;99.90
23540;DHT22;11947;50.810;4.394;2024-02-28T05:33:58;3.50;99.90
23540;DHT22;11947;50.810;4.394;2024-02-28T05:36:25;3.60;99.90
23540;DHT22;11947;50.810;4.394;2024-02-28T05:38:51;3.70;99.90
23540;DHT22;11947;50.810;4.394;2024-02-28T05:41:17;3.70;99.90
23540;DHT22;11947;50.810;4.394;2024-02-28T05:43:43;3.80;99.90
23540;DHT22;11947;50.810;4.394;2024-02-28T05:46:09;3.80;99.90
23540;DHT22;11947;50.810;4.394;2024-02-28T05:48:35;3.90;99.90
23540;DHT22;11947;50.810;4.394;2024-02-28T05:51:01;3.90;99.90
23540;DHT22;11947;50.810;4.394;2024-02-28T05:53:27;4.10;99.90
23540;DHT22;11947;50.810;4.394;2024-02-28T05:55:54;4.10;99.90
23540;DHT22;11947;50.810;4.394;2024-02-28T05:58:22;4.10;99.90
23540;DHT22;11947;50.810;4.394;2024-02-28T06:00:48;4.10;99.90
23540;DHT22;11947;50.810;4.394;2024-02-28T06:03:14;4.20;99.90
23540;DHT22;11947;50.810;4.394;2024-02-28T06:05:40;4.20;99.90
23540;DHT22;11947;50.810;4.394;2024-02-28T06:08:06;4.30;99.90
23540;DHT22;11947;50.810;4.394;2024-02-28T06:10:31;4.20;99.90
23540;DHT22;11947;50.810;4.394;2024-02-28T06:12:57;4.30;99.90
23540;DHT22;11947;50.810;4.394;2024-02-28T06:15:23;4.40;99.90
23540;DHT22;11947;50.810;4.394;2024-02-28T06:17:49;4.40;99.90
23540;DHT22;11947;50.810;4.394;2024-02-28T06:20:14;4.50;99.90
23540;DHT22;11947;50.810;4.394;2024-02-28T06:22:40;4.50;99.90
23540;DHT22;11947;50.810;4.394;2024-02-28T06:25:07;4.60;99.90
23540;DHT22;11947;50.810;4.394;2024-02-28T06:27:41;4.70;99.90
23540;DHT22;11947;50.810;4.394;2024-02-28T06:30:08;4.70;99.90
23540;DHT22;11947;50.810;4.394;2024-02-28T06:32:34;4.70;99.90
23540;DHT22;11947;50.810;4.394;2024-02-28T06:34:59;4.80;99.90
23540;DHT22;11947;50.810;4.394;2024-02-28T06:37:25;4.80;99.90
23540;DHT22;11947;50.810;4.394;2024-02-28T06:39:51;4.80;99.90
23540;DHT22;11947;50.810;4.394;2024-02-28T06:42:16;4.80;99.90
23540;DHT22;11947;50.810;4.394;2024-02-28T06:44:42;4.90;99.90
23540;DHT22;11947;50.810;4.394;2024-02-28T06:47:08;5.00;99.90
23540;DHT22;11947;50.810;4.394;2024-02-28T06:49:34;5.10;99.90
23540;DHT22;11947;50.810;4.394;2024-02-28T06:52:00;5.30;99.90
23540;DHT22;11947;50.810;4.394;2024-02-28T06:54:27;5.40;99.90
23540;DHT22;11947;50.810;4.394;2024-02-28T06:56:54;5.40;99.90
23540;DHT22;11947;50.810;4.394;2024-02-28T06:59:20;5.50;99.90
23540;DHT22;11947;50.810;4.394;2024-02-28T07:01:45;5.70;99.90
23540;DHT22;11947;50.810;4.394;2024-02-28T07:04:11;5.60;99.90
23540;DHT22;11947;50.810;4.394;2024-02-28T07:06:37;5.70;99.90
23540;DHT22;11947;50.810;4.394;2024-02-28T07:09:02;5.80;99.90
23540;DHT22;11947;50.810;4.394;2024-02-28T07:11:28;5.80;99.90
23540;DHT22;11947;50.810;4.394;2024-02-28T07:13:54;5.90;99.90
23540;DHT22;11947;50.810;4.394;2024-02-28T07:16:20;5.90;99.90
23540;DHT22;11947;50.810;4.394;2024-02-28T07:18:45;6.00;99.90
23540;DHT22;11947;50.810;4.394;2024-02-28T07:21:11;6.00;99.90
23540;DHT22;11947;50.810;4.394;2024-02-28T07:23:42;5.90;99.90
23540;DHT22;11947;50.810;4.394;2024-02-28T07:26:08;6.10;99.90
23540;DHT22;11947;50.810;4.394;2024-02-28T07:28:34;6.00;99.90
23540;DHT22;11947;50.810;4.394;2024-02-28T07:30:59;6.10;99.90
23540;DHT22;11947;50.810;4.394;2024-02-28T07:33:25;6.30;99.90
23540;DHT22;11947;50.810;4.394;2024-02-28T07:35:52;6.30;99.90
23540;DHT22;11947;50.810;4.394;2024-02-28T07:38:18;6.40;99.90
23540;DHT22;11947;50.810;4.394;2024-02-28T07:40:47;6.30;99.90
23540;DHT22;11947;50.810;4.394;2024-02-28T07:43:13;6.50;99.90
23540;DHT22;11947;50.810;4.394;2024-02-28T07:45:39;6.60;99.90
23540;DHT22;11947;50.810;4.394;2024-02-28T07:48:05;6.60;99.90
23540;DHT22;11947;50.810;4.394;2024-02-28T07:50:31;6.60;99.90
23540;DHT22;11947;50.810;4.394;2024-02-28T07:52:57;6.60;99.90
23540;DHT22;11947;50.810;4.394;2024-02-28T07:55:22;6.80;99.90
23540;DHT22;11947;50.810;4.394;2024-02-28T07:57:52;7.00;99.90
23540;DHT22;11947;50.810;4.394;2024-02-28T08:00:18;7.10;99.90
23540;DHT22;11947;50.810;4.394;2024-02-28T08:02:45;7.20;99.90
23540;DHT22;11947;50.810;4.394;2024-02-28T08:05:11;7.50;99.90
23540;DHT22;11947;50.810;4.394;2024-02-28T08:07:37;7.50;99.90
23540;DHT22;11947;50.810;4.394;2024-02-28T08:10:03;7.50;99.90
23540;DHT22;11947;50.810;4.394;2024-02-28T08:12:31;7.60;99.90
23540;DHT22;11947;50.810;4.394;2024-02-28T08:14:58;7.40;99.90
23540;DHT22;11947;50.810;4.394;2024-02-28T08:17:23;7.50;99.90
23540;DHT22;11947;50.810;4.394;2024-02-28T08:19:49;7.50;99.90
23540;DHT22;11947;50.810;4.394;2024-02-28T08:22:15;7.50;99.90
23540;DHT22;11947;50.810;4.394;2024-02-28T08:24:41;7.50;99.90
23540;DHT22;11947;50.810;4.394;2024-02-28T08:27:07;7.40;99.90
23540;DHT22;11947;50.810;4.394;2024-02-28T08:29:33;7.40;99.90
23540;DHT22;11947;50.810;4.394;2024-02-28T08:32:01;7.40;99.90
23540;DHT22;11947;50.810;4.394;2024-02-28T08:34:26;7.30;99.90
23540;DHT22;11947;50.810;4.394;2024-02-28T08:36:52;7.50;99.90
23540;DHT22;11947;50.810;4.394;2024-02-28T08:39:18;7.70;99.90
23540;DHT22;11947;50.810;4.394;2024-02-28T08:41:43;7.80;99.90
23540;DHT22;11947;50.810;4.394;2024-02-28T08:44:09;7.90;99.90
23540;DHT22;11947;50.810;4.394;2024-02-28T08:46:35;8.10;99.90
23540;DHT22;11947;50.810;4.394;2024-02-28T08:49:00;8.10;99.90
23540;DHT22;11947;50.810;4.394;2024-02-28T08:51:26;8.00;99.90
23540;DHT22;11947;50.810;4.394;2024-02-28T08:53:52;7.80;99.90
23540;DHT22;11947;50.810;4.394;2024-02-28T08:56:20;7.90;99.90
23540;DHT22;11947;50.810;4.394;2024-02-28T08:58:46;7.90;99.90
23540;DHT22;11947;50.810;4.394;2024-02-28T09:01:15;7.90;99.90
23540;DHT22;11947;50.810;4.394;2024-02-28T09:03:41;7.80;99.90
23540;DHT22;11947;50.810;4.394;2024-02-28T09:06:07;8.00;99.90
23540;DHT22;11947;50.810;4.394;2024-02-28T09:08:32;8.00;99.90
23540;DHT22;11947;50.810;4.394;2024-02-28T09:10:58;7.80;99.90
23540;DHT22;11947;50.810;4.394;2024-02-28T09:13:24;7.70;99.90
23540;DHT22;11947;50.810;4.394;2024-02-28T09:15:49;8.00;99.90
23540;DHT22;11947;50.810;4.394;2024-02-28T09:18:16;8.10;99.90
23540;DHT22;11947;50.810;4.394;2024-02-28T09:20:42;8.20;99.90
23540;DHT22;11947;50.810;4.394;2024-02-28T09:23:07;8.20;99.90
23540;DHT22;11947;50.810;4.394;2024-02-28T09:25:33;8.30;99.90
23540;DHT22;11947;50.810;4.394;2024-02-28T09:28:01;8.00;99.90
23540;DHT22;11947;50.810;4.394;2024-02-28T09:30:27;8.20;99.90
23540;DHT22;11947;50.810;4.394;2024-02-28T09:32:53;8.30;99.90
23540;DHT22;11947;50.810;4.394;2024-02-28T09:35:19;8.40;99.90
23540;DHT22;11947;50.810;4.394;2024-02-28T09:37:45;8.30;99.90
23540;DHT22;11947;50.810;4.394;2024-02-28T09:40:11;8.40;99.90
23540;DHT22;11947;50.810;4.394;2024-02-28T09:42:38;8.50;99.90
23540;DHT22;11947;50.810;4.394;2024-02-28T09:45:04;8.60;99.90
23540;DHT22;11947;50.810;4.394;2024-02-28T09:47:30;8.60;99.90
23540;DHT22;11947;50.810;4.394;2024-02-28T09:49:57;8.70;99.90
23540;DHT22;11947;50.810;4.394;2024-02-28T09:52:27;8.70;99.90
23540;DHT22;11947;50.810;4.394;2024-02-28T09:54:55;8.70;99.90
23540;DHT22;11947;50.810;4.394;2024-02-28T09:57:22;8.90;99.90
23540;DHT22;11947;50.810;4.394;2024-02-28T09:59:57;9.10;99.90
23540;DHT22;11947;50.810;4.394;2024-02-28T10:02:23;9.10;99.90
23540;DHT22;11947;50.810;4.394;2024-02-28T10:04:50;9.10;99.90
23540;DHT22;11947;50.810;4.394;2024-02-28T10:07:16;9.00;99.90
23540;DHT22;11947;50.810;4.394;2024-02-28T10:09:42;9.00;99.90
23540;DHT22;11947;50.810;4.394;2024-02-28T10:12:08;9.00;99.90
23540;DHT22;11947;50.810;4.394;2024-02-28T10:14:34;9.10;99.90
23540;DHT22;11947;50.810;4.394;2024-02-28T10:16:59;9.20;99.90
23540;DHT22;11947;50.810;4.394;2024-02-28T10:19:25;9.00;99.90
23540;DHT22;11947;50.810;4.394;2024-02-28T10:21:52;9.30;99.90
23540;DHT22;11947;50.810;4.394;2024-02-28T10:24:17;9.50;99.90
23540;DHT22;11947;50.810;4.394;2024-02-28T10:26:47;9.30;99.90
23540;DHT22;11947;50.810;4.394;2024-02-28T10:29:24;9.60;99.90
23540;DHT22;11947;50.810;4.394;2024-02-28T10:31:57;9.80;99.90
23540;DHT22;11947;50.810;4.394;2024-02-28T10:34:22;10.00;99.90
23540;DHT22;11947;50.810;4.394;2024-02-28T10:36:49;10.20;99.90
23540;DHT22;11947;50.810;4.394;2024-02-28T10:39:15;10.40;99.90
23540;DHT22;11947;50.810;4.394;2024-02-28T10:41:41;10.10;99.90
23540;DHT22;11947;50.810;4.394;2024-02-28T10:44:08;10.40;99.90
23540;DHT22;11947;50.810;4.394;2024-02-28T10:46:38;10.50;99.90
23540;DHT22;11947;50.810;4.394;2024-02-28T10:49:05;10.50;99.90
23540;DHT22;11947;50.810;4.394;2024-02-28T10:51:34;10.40;99.90
23540;DHT22;11947;50.810;4.394;2024-02-28T10:54:08;10.60;99.90
23540;DHT22;11947;50.810;4.394;2024-02-28T10:56:35;11.00;99.90
23540;DHT22;11947;50.810;4.394;2024-02-28T10:59:01;11.10;99.90
23540;DHT22;11947;50.810;4.394;2024-02-28T11:01:27;11.10;99.90
23540;DHT22;11947;50.810;4.394;2024-02-28T11:03:53;11.00;99.90
23540;DHT22;11947;50.810;4.394;2024-02-28T11:06:21;10.90;99.90
23540;DHT22;11947;50.810;4.394;2024-02-28T11:08:48;10.90;99.90
23540;DHT22;11947;50.810;4.394;2024-02-28T11:11:15;10.70;99.90
23540;DHT22;11947;50.810;4.394;2024-02-28T11:13:52;10.70;99.90
23540;DHT22;11947;50.810;4.394;2024-02-28T11:16:25;10.80;99.90
23540;DHT22;11947;50.810;4.394;2024-02-28T11:18:51;10.50;99.90
23540;DHT22;11947;50.810;4.394;2024-02-28T11:21:17;10.70;99.90
23540;DHT22;11947;50.810;4.394;2024-02-28T11:23:48;10.30;99.90
23540;DHT22;11947;50.810;4.394;2024-02-28T11:26:14;10.40;99.90
23540;DHT22;11947;50.810;4.394;2024-02-28T11:28:40;10.40;99.90
23540;DHT22;11947;50.810;4.394;2024-02-28T11:31:06;10.30;99.90
23540;DHT22;11947;50.810;4.394;2024-02-28T11:33:31;10.60;99.90
23540;DHT22;11947;50.810;4.394;2024-02-28T11:35:59;10.90;99.90
23540;DHT22;11947;50.810;4.394;2024-02-28T11:38:27;11.20;99.90
23540;DHT22;11947;50.810;4.394;2024-02-28T11:40:54;11.60;99.90
23540;DHT22;11947;50.810;4.394;2024-02-28T11:43:23;11.90;99.90
23540;DHT22;11947;50.810;4.394;2024-02-28T11:45:49;12.10;99.90
23540;DHT22;11947;50.810;4.394;2024-02-28T11:48:16;11.80;99.90
23540;DHT22;11947;50.810;4.394;2024-02-28T11:50:42;11.80;99.90
23540;DHT22;11947;50.810;4.394;2024-02-28T11:53:08;11.70;99.90
23540;DHT22;11947;50.810;4.394;2024-02-28T11:55:34;11.70;99.90
23540;DHT22;11947;50.810;4.394;2024-02-28T11:58:01;12.20;99.90
23540;DHT22;11947;50.810;4.394;2024-02-28T12:00:26;12.70;99.90
23540;DHT22;11947;50.810;4.394;2024-02-28T12:02:52;12.70;99.90
23540;DHT22;11947;50.810;4.394;2024-02-28T12:05:19;12.90;99.90
23540;DHT22;11947;50.810;4.394;2024-02-28T12:07:45;12.90;99.90
23540;DHT22;11947;50.810;4.394;2024-02-28T12:10:11;12.90;99.90
23540;DHT22;11947;50.810;4.394;2024-02-28T12:12:38;13.00;99.90
23540;DHT22;11947;50.810;4.394;2024-02-28T12:15:05;13.50;99.90
23540;DHT22;11947;50.810;4.394;2024-02-28T12:17:31;14.00;99.90
23540;DHT22;11947;50.810;4.394;2024-02-28T12:20:00;14.30;99.90
23540;DHT22;11947;50.810;4.394;2024-02-28T12:22:26;14.80;99.90
23540;DHT22;11947;50.810;4.394;2024-02-28T12:24:52;14.70;99.90
23540;DHT22;11947;50.810;4.394;2024-02-28T12:27:18;14.20;99.90
23540;DHT22;11947;50.810;4.394;2024-02-28T12:29:44;14.20;99.90
23540;DHT22;11947;50.810;4.394;2024-02-28T12:32:10;13.80;99.90
23540;DHT22;11947;50.810;4.394;2024-02-28T12:34:35;13.90;99.90
23540;DHT22;11947;50.810;4.394;2024-02-28T12:37:01;13.60;99.90
23540;DHT22;11947;50.810;4.394;2024-02-28T12:39:28;13.80;99.90
23540;DHT22;11947;50.810;4.394;2024-02-28T12:41:53;13.70;99.90
23540;DHT22;11947;50.810;4.394;2024-02-28T12:44:19;13.40;99.90
23540;DHT22;11947;50.810;4.394;2024-02-28T12:46:45;13.20;99.90
23540;DHT22;11947;50.810;4.394;2024-02-28T12:49:11;12.80;99.90
23540;DHT22;11947;50.810;4.394;2024-02-28T12:51:43;12.90;99.90
23540;DHT22;11947;50.810;4.394;2024-02-28T12:54:11;12.50;99.90
23540;DHT22;11947;50.810;4.394;2024-02-28T12:56:42;12.50;99.90
23540;DHT22;11947;50.810;4.394;2024-02-28T12:59:17;12.40;99.90
23540;DHT22;11947;50.810;4.394;2024-02-28T13:01:43;12.20;99.90
23540;DHT22;11947;50.810;4.394;2024-02-28T13:04:09;12.20;99.90
23540;DHT22;11947;50.810;4.394;2024-02-28T13:06:35;12.10;99.90
23540;DHT22;11947;50.810;4.394;2024-02-28T13:09:00;11.90;99.90
23540;DHT22;11947;50.810;4.394;2024-02-28T13:11:26;12.00;99.90
23540;DHT22;11947;50.810;4.394;2024-02-28T13:13:52;12.00;99.90
23540;DHT22;11947;50.810;4.394;2024-02-28T13:16:19;12.10;99.90
23540;DHT22;11947;50.810;4.394;2024-02-28T13:18:45;12.00;99.90
23540;DHT22;11947;50.810;4.394;2024-02-28T13:21:12;11.60;99.90
23540;DHT22;11947;50.810;4.394;2024-02-28T13:23:37;11.70;99.90
23540;DHT22;11947;50.810;4.394;2024-02-28T13:26:07;11.70;99.90
23540;DHT22;11947;50.810;4.394;2024-02-28T13:28:33;11.70;99.90
23540;DHT22;11947;50.810;4.394;2024-02-28T13:31:02;11.90;99.90
23540;DHT22;11947;50.810;4.394;2024-02-28T13:33:29;12.00;99.90
23540;DHT22;11947;50.810;4.394;2024-02-28T13:35:55;12.00;99.90
23540;DHT22;11947;50.810;4.394;2024-02-28T13:38:21;11.90;99.90
23540;DHT22;11947;50.810;4.394;2024-02-28T13:40:50;11.90;99.90
23540;DHT22;11947;50.810;4.394;2024-02-28T13:43:16;11.90;99.90
23540;DHT22;11947;50.810;4.394;2024-02-28T13:45:49;11.90;99.90
23540;DHT22;11947;50.810;4.394;2024-02-28T13:48:21;12.20;99.90
23540;DHT22;11947;50.810;4.394;2024-02-28T13:50:48;12.30;99.90
23540;DHT22;11947;50.810;4.394;2024-02-28T13:53:14;12.30;99.90
23540;DHT22;11947;50.810;4.394;2024-02-28T13:55:43;12.40;99.90
23540;DHT22;11947;50.810;4.394;2024-02-28T13:58:11;12.70;99.90
23540;DHT22;11947;50.810;4.394;2024-02-28T14:00:38;12.70;99.90
23540;DHT22;11947;50.810;4.394;2024-02-28T14:03:05;12.80;99.90
23540;DHT22;11947;50.810;4.394;2024-02-28T14:05:31;12.90;99.90
23540;DHT22;11947;50.810;4.394;2024-02-28T14:07:57;13.10;99.90
23540;DHT22;11947;50.810;4.394;2024-02-28T14:10:24;12.90;99.90
23540;DHT22;11947;50.810;4.394;2024-02-28T14:12:52;13.00;99.90
23540;DHT22;11947;50.810;4.394;2024-02-28T14:15:20;12.80;99.90
23540;DHT22;11947;50.810;4.394;2024-02-28T14:17:47;12.70;99.90
23540;DHT22;11947;50.810;4.394;2024-02-28T14:20:13;12.60;99.90
23540;DHT22;11947;50.810;4.394;2024-02-28T14:22:39;12.20;99.90
23540;DHT22;11947;50.810;4.394;2024-02-28T14:25:18;12.40;99.90
23540;DHT22;11947;50.810;4.394;2024-02-28T14:27:44;12.50;99.90
23540;DHT22;11947;50.810;4.394;2024-02-28T14:30:11;12.30;99.90
23540;DHT22;11947;50.810;4.394;2024-02-28T14:32:38;12.40;99.90
23540;DHT22;11947;50.810;4.394;2024-02-28T14:35:08;12.40;99.90
23540;DHT22;11947;50.810;4.394;2024-02-28T14:37:38;12.00;99.90
23540;DHT22;11947;50.810;4.394;2024-02-28T14:40:07;11.90;99.90
23540;DHT22;11947;50.810;4.394;2024-02-28T14:42:45;11.60;99.90
23540;DHT22;11947;50.810;4.394;2024-02-28T14:45:11;11.60;99.90
23540;DHT22;11947;50.810;4.394;2024-02-28T14:47:41;11.70;99.90
23540;DHT22;11947;50.810;4.394;2024-02-28T14:50:08;11.60;99.90
23540;DHT22;11947;50.810;4.394;2024-02-28T14:52:38;11.40;99.90
23540;DHT22;11947;50.810;4.394;2024-02-28T14:55:08;11.40;99.90
23540;DHT22;11947;50.810;4.394;2024-02-28T14:57:37;11.60;99.90
23540;DHT22;11947;50.810;4.394;2024-02-28T15:00:04;11.70;99.90
23540;DHT22;11947;50.810;4.394;2024-02-28T15:02:35;11.80;99.90
23540;DHT22;11947;50.810;4.394;2024-02-28T15:05:01;12.10;99.90
23540;DHT22;11947;50.810;4.394;2024-02-28T15:07:31;12.20;99.90
23540;DHT22;11947;50.810;4.394;2024-02-28T15:09:57;12.00;99.90
23540;DHT22;11947;50.810;4.394;2024-02-28T15:12:26;12.10;99.90
23540;DHT22;11947;50.810;4.394;2024-02-28T15:14:52;11.80;99.90
23540;DHT22;11947;50.810;4.394;2024-02-28T15:17:20;11.90;99.90
23540;DHT22;11947;50.810;4.394;2024-02-28T15:19:45;11.70;99.90
23540;DHT22;11947;50.810;4.394;2024-02-28T15:22:11;11.80;99.90
23540;DHT22;11947;50.810;4.394;2024-02-28T15:24:37;11.90;99.90
23540;DHT22;11947;50.810;4.394;2024-02-28T15:27:05;11.90;99.90
23540;DHT22;11947;50.810;4.394;2024-02-28T15:29:31;11.80;99.90
23540;DHT22;11947;50.810;4.394;2024-02-28T15:31:57;11.70;99.90
23540;DHT22;11947;50.810;4.394;2024-02-28T15:34:23;11.70;99.90
23540;DHT22;11947;50.810;4.394;2024-02-28T15:36:49;11.80;99.90